createdAt,value
2019-01-24T00:00:29.287Z,20.10
2019-01-24T00:03:23.573Z,20.10
2019-01-24T00:06:16.599Z,20.10
2019-01-24T00:09:11.012Z,20.10
2019-01-24T00:12:04.581Z,20.10
2019-01-24T00:14:57.277Z,20.10
2019-01-24T00:18:04.208Z,20.10
2019-01-24T00:21:04.948Z,20.10
2019-01-24T00:23:55.548Z,20.10
2019-01-24T00:26:56.478Z,20.10
2019-01-24T00:29:50.177Z,20.10
2019-01-24T01:40:11.198Z,19.90
2019-01-24T01:48:11.861Z,19.90
2019-01-24T01:51:05.236Z,19.90
2019-01-24T01:53:56.829Z,19.90
2019-01-24T01:56:54.350Z,19.90
2019-01-24T01:59:45.821Z,19.90
2019-01-24T02:02:38.041Z,19.90
2019-01-24T02:05:32.749Z,19.90
2019-01-24T02:08:25.696Z,19.90
2019-01-24T02:11:17.300Z,19.90
2019-01-24T02:14:08.709Z,20.00
2019-01-24T02:16:59.852Z,20.00
2019-01-24T02:19:51.313Z,20.00
2019-01-24T02:22:42.854Z,20.00
2019-01-24T02:25:34.289Z,20.00
2019-01-24T02:32:49.545Z,20.00
2019-01-24T02:35:44.117Z,20.00
2019-01-24T02:38:37.095Z,20.00
2019-01-24T02:41:28.472Z,20.00
2019-01-24T02:44:20.128Z,20.00
2019-01-24T02:47:11.933Z,20.10
2019-01-24T02:50:03.482Z,20.10
2019-01-24T02:52:58.471Z,20.10
2019-01-24T02:55:51.509Z,20.10
2019-01-24T02:58:42.922Z,20.10
2019-01-24T03:01:41.258Z,20.10
2019-01-24T03:04:33.699Z,20.10
2019-01-24T03:07:31.915Z,20.10
2019-01-24T03:10:23.466Z,20.10
2019-01-24T03:13:15.000Z,20.10
2019-01-24T03:16:06.190Z,20.10
2019-01-24T03:18:57.535Z,20.10
2019-01-24T03:21:48.583Z,20.10
2019-01-24T03:24:40.240Z,20.10
2019-01-24T03:27:32.106Z,20.10
2019-01-24T03:30:24.779Z,20.20
2019-01-24T03:33:16.759Z,20.20
2019-01-24T03:36:08.258Z,20.20
2019-01-24T03:39:06.205Z,20.20
2019-01-24T03:41:59.300Z,20.20
2019-01-24T03:44:51.264Z,20.20
2019-01-24T03:48:02.532Z,20.20
2019-01-24T03:50:53.885Z,20.20
2019-01-24T03:53:59.311Z,20.20
2019-01-24T03:56:50.436Z,20.30
2019-01-24T03:59:42.076Z,20.30
2019-01-24T04:02:33.610Z,20.30
2019-01-24T04:05:26.631Z,20.30
2019-01-24T04:08:18.109Z,20.30
2019-01-24T04:11:13.368Z,20.40
2019-01-24T04:14:05.046Z,20.30
2019-01-24T04:16:58.074Z,20.30
2019-01-24T04:19:50.113Z,20.30
2019-01-24T04:22:41.703Z,20.30
2019-01-24T04:25:33.924Z,20.40
2019-01-24T04:28:25.498Z,20.40
2019-01-24T04:31:18.530Z,20.40
2019-01-24T04:34:11.736Z,20.40
2019-01-24T04:37:04.371Z,20.40
2019-01-24T04:39:55.966Z,20.40
2019-01-24T04:42:49.064Z,20.40
2019-01-24T04:45:40.654Z,20.50
2019-01-24T04:48:32.291Z,20.40
2019-01-24T04:51:23.991Z,20.50
2019-01-24T04:54:16.169Z,20.50
2019-01-24T04:57:11.744Z,20.50
2019-01-24T05:00:03.798Z,20.50
2019-01-24T05:02:55.841Z,20.50
2019-01-24T05:05:47.518Z,20.50
2019-01-24T05:08:41.256Z,20.50
2019-01-24T05:11:33.020Z,20.50
2019-01-24T05:14:25.143Z,20.50
2019-01-24T05:17:20.544Z,20.50
2019-01-24T05:20:14.573Z,20.50
2019-01-24T05:23:06.535Z,20.50
2019-01-24T05:25:58.703Z,20.50
2019-01-24T05:28:54.579Z,20.50
2019-01-24T05:31:46.042Z,20.50
2019-01-24T05:34:37.748Z,20.50
2019-01-24T05:37:35.054Z,20.50
2019-01-24T05:40:25.470Z,20.50
2019-01-24T05:43:16.795Z,20.50
2019-01-24T05:46:12.875Z,20.50
2019-01-24T05:49:05.221Z,20.50
2019-01-24T05:52:01.619Z,20.50
2019-01-24T05:54:53.119Z,20.50
2019-01-24T05:57:44.506Z,20.50
2019-01-24T06:00:40.142Z,20.50
2019-01-24T06:03:49.798Z,20.50
2019-01-24T06:06:40.809Z,20.50
2019-01-24T06:09:32.539Z,20.40
2019-01-24T06:12:27.766Z,20.40
2019-01-24T06:15:19.394Z,20.40
2019-01-24T06:18:14.267Z,20.40
2019-01-24T06:21:05.629Z,20.40
2019-01-24T06:23:57.210Z,20.40
2019-01-24T06:26:48.874Z,20.40
2019-01-24T06:29:41.009Z,20.40
2019-01-24T06:32:33.510Z,20.40
2019-01-24T06:35:26.392Z,20.40
2019-01-24T06:38:18.564Z,20.40
2019-01-24T06:41:10.962Z,20.40
2019-01-24T06:44:05.004Z,20.40
2019-01-24T06:46:57.875Z,20.40
2019-01-24T06:49:49.963Z,20.40
2019-01-24T07:13:23.607Z,20.30
2019-01-24T07:16:15.439Z,20.30
2019-01-24T07:19:08.759Z,20.40
2019-01-24T07:22:01.828Z,20.30
2019-01-24T07:24:54.388Z,20.40
2019-01-24T07:27:45.634Z,20.30
2019-01-24T07:30:37.236Z,20.30
2019-01-24T07:33:28.736Z,20.40
2019-01-24T07:36:20.874Z,20.30
2019-01-24T07:39:12.726Z,20.40
2019-01-24T07:42:05.338Z,20.30
2019-01-24T07:44:56.368Z,20.40
2019-01-24T07:47:53.517Z,20.30
2019-01-24T07:50:44.520Z,20.40
2019-01-24T07:53:37.987Z,20.40
2019-01-24T07:56:31.570Z,20.40
2019-01-24T07:59:23.662Z,20.40
2019-01-24T08:02:14.943Z,20.40
2019-01-24T08:05:06.513Z,20.40
2019-01-24T08:07:57.829Z,20.40
2019-01-24T08:10:49.574Z,20.40
2019-01-24T08:13:40.911Z,20.40
2019-01-24T08:16:33.480Z,20.40
2019-01-24T08:19:25.562Z,20.40
2019-01-24T08:22:19.038Z,20.40
2019-01-24T08:25:16.154Z,20.40
2019-01-24T08:28:16.813Z,20.40
2019-01-24T08:31:09.344Z,20.40
2019-01-24T08:34:03.309Z,20.40
2019-01-24T08:36:55.304Z,20.40
2019-01-24T08:39:47.817Z,20.40
2019-01-24T08:42:39.784Z,20.40
2019-01-24T08:45:31.830Z,20.40
2019-01-24T08:48:23.691Z,20.40
2019-01-24T08:51:15.829Z,20.40
2019-01-24T08:54:07.577Z,20.40
2019-01-24T08:57:01.410Z,20.40
2019-01-24T08:59:52.834Z,20.40
2019-01-24T09:02:44.386Z,20.40
2019-01-24T09:05:35.871Z,20.40
2019-01-24T09:08:28.676Z,20.40
2019-01-24T09:11:22.196Z,20.40
2019-01-24T09:14:29.799Z,20.40
2019-01-24T09:17:25.684Z,20.40
2019-01-24T09:20:26.411Z,20.40
2019-01-24T09:23:45.103Z,20.40
2019-01-24T09:26:45.063Z,20.40
2019-01-24T09:29:58.389Z,20.40
2019-01-24T09:32:59.882Z,20.40
2019-01-24T09:35:55.606Z,20.40
2019-01-24T09:39:00.781Z,20.40
2019-01-24T09:41:52.958Z,20.40
2019-01-24T09:44:45.526Z,20.40
2019-01-24T09:47:41.657Z,20.40
2019-01-24T09:50:33.615Z,20.40
2019-01-24T09:53:28.314Z,20.40
2019-01-24T09:56:22.322Z,20.40
2019-01-24T09:59:15.386Z,20.40
2019-01-24T10:02:07.438Z,20.40
2019-01-24T10:04:58.686Z,20.40
2019-01-24T10:07:50.262Z,20.40
2019-01-24T10:10:41.696Z,20.40
2019-01-24T10:13:33.358Z,20.40
2019-01-24T10:16:24.455Z,20.40
2019-01-24T10:19:16.109Z,20.40
2019-01-24T10:22:07.146Z,20.40
2019-01-24T10:25:02.512Z,20.40
2019-01-24T10:27:55.878Z,20.40
2019-01-24T10:30:49.347Z,20.40
2019-01-24T10:33:41.692Z,20.50
2019-01-24T10:36:34.456Z,20.50
2019-01-24T10:39:31.189Z,20.50
2019-01-24T10:42:23.901Z,20.60
2019-01-24T10:45:27.936Z,20.60
2019-01-24T10:51:42.906Z,20.60
2019-01-24T10:54:43.783Z,20.60
2019-01-24T10:57:37.484Z,20.60
2019-01-24T11:00:45.354Z,20.70
2019-01-24T11:03:38.896Z,20.70
2019-01-24T11:06:32.314Z,20.70
2019-01-24T11:09:35.316Z,20.70
2019-01-24T11:12:28.250Z,20.80
2019-01-24T11:15:23.672Z,20.80
2019-01-24T11:18:15.855Z,20.80
2019-01-24T11:21:08.687Z,20.80
2019-01-24T11:24:00.249Z,20.80
2019-01-24T11:26:51.499Z,20.80
2019-01-24T11:29:43.322Z,20.90
2019-01-24T11:32:34.889Z,20.90
2019-01-24T11:35:28.320Z,20.90
2019-01-24T11:38:24.457Z,20.90
2019-01-24T11:47:50.867Z,20.90
2019-01-24T11:50:43.437Z,20.90
2019-01-24T11:53:35.377Z,20.90
2019-01-24T11:56:27.038Z,20.90
2019-01-24T11:59:19.217Z,20.90
2019-01-24T13:04:41.220Z,20.90
2019-01-24T13:07:32.547Z,20.90
2019-01-24T13:10:25.465Z,20.90
2019-01-24T13:13:17.542Z,20.90
2019-01-24T13:16:09.114Z,20.90
2019-01-24T13:19:00.769Z,20.90
2019-01-24T13:21:52.249Z,21.00
2019-01-24T13:24:47.146Z,21.00
2019-01-24T13:27:39.000Z,21.00
2019-01-24T13:30:42.839Z,21.00
2019-01-24T13:34:05.458Z,21.00
2019-01-24T13:37:09.850Z,21.00
2019-01-24T13:40:24.369Z,21.00
2019-01-24T13:43:16.103Z,21.00
2019-01-24T13:46:08.379Z,21.00
2019-01-24T13:49:00.163Z,21.00
2019-01-24T13:52:04.056Z,21.00
2019-01-24T13:54:55.482Z,21.00
2019-01-24T13:57:47.032Z,21.00
2019-01-24T14:00:39.245Z,20.90
2019-01-24T14:03:45.047Z,20.90
2019-01-24T14:06:36.649Z,20.90
2019-01-24T14:09:28.340Z,20.90
2019-01-24T14:12:20.114Z,20.90
2019-01-24T14:15:13.248Z,20.90
2019-01-24T14:18:04.989Z,20.90
2019-01-24T14:20:56.925Z,20.90
2019-01-24T14:23:52.982Z,20.80
2019-01-24T14:26:45.278Z,20.90
2019-01-24T14:29:49.068Z,20.80
2019-01-24T14:32:41.334Z,20.80
2019-01-24T14:35:42.167Z,20.80
2019-01-24T14:38:34.124Z,20.80
2019-01-24T14:41:26.299Z,20.80
2019-01-24T14:44:30.535Z,20.80
2019-01-24T14:47:23.961Z,20.80
2019-01-24T14:50:19.610Z,20.80
2019-01-24T14:53:13.765Z,20.80
2019-01-24T14:56:09.236Z,20.80
2019-01-24T14:59:01.284Z,20.80
2019-01-24T15:01:56.309Z,20.80
2019-01-24T15:04:49.066Z,20.80
2019-01-24T15:07:46.950Z,20.80
2019-01-24T15:10:41.461Z,20.80
2019-01-24T15:13:36.441Z,20.80
2019-01-24T15:16:30.289Z,20.80
2019-01-24T15:19:23.723Z,20.80
2019-01-24T15:22:16.256Z,20.80
2019-01-24T15:25:08.059Z,20.80
2019-01-24T15:28:00.470Z,20.80
2019-01-24T15:30:55.533Z,20.80
2019-01-24T15:33:49.395Z,20.80
2019-01-24T15:49:06.738Z,20.70
2019-01-24T15:52:14.394Z,20.70
2019-01-24T15:55:06.636Z,20.70
2019-01-24T15:58:02.883Z,20.70
2019-01-24T16:00:54.890Z,20.70
2019-01-24T16:03:46.806Z,20.70
2019-01-24T16:06:38.593Z,20.70
2019-01-24T16:09:31.850Z,20.70
2019-01-24T16:12:24.768Z,20.70
2019-01-24T16:15:17.870Z,20.70
2019-01-24T16:18:11.121Z,20.70
2019-01-24T16:21:09.879Z,20.70
2019-01-24T16:24:03.563Z,20.70
2019-01-24T16:27:01.400Z,20.70
2019-01-24T16:29:54.822Z,20.70
2019-01-24T16:32:46.665Z,20.70
2019-01-24T16:35:40.677Z,20.70
2019-01-24T16:38:39.637Z,20.70
2019-01-24T16:41:38.478Z,20.70
2019-01-24T16:44:31.215Z,20.70
2019-01-24T16:47:23.701Z,20.70
2019-01-24T16:50:16.650Z,20.70
2019-01-24T16:53:16.014Z,20.70
2019-01-24T16:56:08.146Z,20.70
2019-01-24T16:59:04.062Z,20.70
2019-01-24T17:01:56.676Z,20.70
2019-01-24T17:04:48.409Z,20.70
2019-01-24T17:07:42.643Z,20.70
2019-01-24T17:10:35.646Z,20.70
2019-01-24T17:13:28.633Z,20.60
2019-01-24T17:16:22.477Z,20.60
2019-01-24T17:19:19.877Z,20.60
2019-01-24T17:22:12.668Z,20.60
2019-01-24T17:25:18.313Z,20.70
2019-01-24T17:28:16.061Z,20.60
2019-01-24T17:31:07.786Z,20.60
2019-01-24T17:34:02.070Z,20.60
2019-01-24T17:36:55.163Z,20.60
2019-01-24T17:39:48.326Z,20.60
2019-01-24T17:42:48.306Z,20.60
2019-01-24T17:45:40.526Z,20.60
2019-01-24T17:48:36.512Z,20.60
2019-01-24T17:51:30.873Z,20.60
2019-01-24T17:54:22.626Z,20.60
2019-01-24T17:57:15.969Z,20.60
2019-01-24T18:00:10.910Z,20.60
2019-01-24T18:03:09.012Z,20.60
2019-01-24T18:06:07.094Z,20.60
2019-01-24T18:09:00.113Z,20.60
2019-01-24T18:11:53.491Z,20.60
2019-01-24T18:14:45.594Z,20.60
2019-01-24T18:17:37.133Z,20.60
2019-01-24T18:20:30.729Z,20.60
2019-01-24T18:23:29.976Z,20.60
2019-01-24T18:26:23.048Z,20.60
2019-01-24T18:29:14.992Z,20.60
2019-01-24T18:32:14.963Z,20.60
2019-01-24T18:35:09.158Z,20.60
2019-01-24T18:38:08.530Z,20.60
2019-01-24T18:41:08.356Z,20.60
2019-01-24T18:43:55.309Z,20.60
2019-01-24T18:46:46.786Z,20.60
2019-01-24T18:49:38.879Z,20.60
2019-01-24T18:52:32.322Z,20.60
2019-01-24T18:55:25.583Z,20.60
2019-01-24T18:58:17.572Z,20.60
2019-01-24T19:01:12.080Z,20.60
2019-01-24T19:04:05.014Z,20.60
2019-01-24T19:06:58.197Z,20.60
2019-01-24T19:09:49.739Z,20.60
2019-01-24T19:12:41.284Z,20.60
2019-01-24T19:15:32.654Z,20.70
2019-01-24T19:18:24.683Z,20.60
2019-01-24T19:21:17.788Z,20.60
2019-01-24T19:24:12.500Z,20.70
2019-01-24T19:27:06.004Z,20.70
2019-01-24T19:29:59.450Z,20.70
2019-01-24T19:32:52.404Z,20.70
2019-01-24T19:35:44.178Z,20.70
2019-01-24T19:38:37.152Z,20.70
2019-01-24T19:41:31.312Z,20.70
2019-01-24T19:44:24.682Z,20.70
2019-01-24T19:47:16.565Z,20.70
2019-01-24T19:50:08.872Z,20.70
2019-01-24T19:53:02.042Z,20.70
2019-01-24T19:55:54.165Z,20.70
2019-01-24T19:58:46.293Z,20.70
2019-01-24T20:01:40.210Z,20.70
2019-01-24T20:04:39.335Z,20.70
2019-01-24T20:07:44.781Z,20.70
2019-01-24T20:10:38.001Z,20.70
2019-01-24T20:13:33.313Z,20.70
2019-01-24T20:16:38.846Z,20.70
2019-01-24T20:19:44.132Z,20.70
2019-01-24T20:22:38.375Z,20.70
2019-01-24T20:25:33.867Z,20.60
2019-01-24T20:28:25.958Z,20.70
2019-01-24T20:34:48.702Z,20.70
2019-01-24T20:37:43.912Z,20.60
2019-01-24T20:40:44.015Z,20.60
2019-01-24T20:43:44.139Z,20.60
2019-01-24T20:46:37.948Z,20.60
2019-01-24T20:49:31.342Z,20.60
2019-01-24T20:52:25.354Z,20.60
2019-01-24T20:55:30.538Z,20.60
2019-01-24T20:58:26.462Z,20.60
2019-01-24T21:01:18.267Z,20.60
2019-01-24T21:04:16.286Z,20.60
2019-01-24T21:07:08.294Z,20.60
2019-01-24T21:10:07.868Z,20.60
2019-01-24T21:12:59.452Z,20.60
2019-01-24T21:15:53.628Z,20.60
2019-01-24T21:18:45.755Z,20.60
2019-01-24T21:21:38.980Z,20.60
2019-01-24T21:24:36.597Z,20.60
2019-01-24T21:27:32.159Z,20.60
2019-01-24T21:30:25.139Z,20.60
2019-01-24T21:33:16.985Z,20.60
2019-01-24T21:36:08.371Z,20.60
2019-01-24T21:39:08.149Z,20.60
2019-01-24T21:41:59.930Z,20.60
2019-01-24T21:44:52.253Z,20.60
2019-01-24T21:47:52.346Z,20.60
2019-01-24T21:50:46.534Z,20.60
2019-01-24T21:53:38.695Z,20.60
2019-01-24T21:56:32.381Z,20.60
2019-01-24T21:59:24.332Z,20.60
2019-01-24T22:02:17.914Z,20.60
2019-01-24T22:05:10.949Z,20.60
2019-01-24T22:08:04.806Z,20.60
2019-01-24T22:11:02.566Z,20.60
2019-01-24T22:14:02.879Z,20.60
2019-01-24T22:16:55.415Z,20.60
2019-01-24T22:19:49.439Z,20.60
2019-01-24T22:22:40.981Z,20.60
2019-01-24T22:25:34.056Z,20.60
2019-01-24T22:28:26.823Z,20.60
2019-01-24T22:31:26.562Z,20.60
2019-01-24T22:34:31.347Z,20.60
2019-01-24T22:37:23.924Z,20.60
2019-01-24T22:40:15.756Z,20.60
2019-01-24T22:43:07.690Z,20.60
2019-01-24T22:46:19.103Z,20.60
2019-01-24T22:49:33.300Z,20.60
2019-01-24T22:52:25.277Z,20.60
2019-01-24T22:55:18.375Z,20.60
2019-01-24T22:58:21.407Z,20.60
2019-01-24T23:01:40.330Z,20.60
2019-01-24T23:04:32.923Z,20.60
2019-01-24T23:07:25.498Z,20.60
2019-01-24T23:10:19.077Z,20.60
2019-01-24T23:13:12.956Z,20.60
2019-01-24T23:16:04.662Z,20.60
2019-01-24T23:18:58.767Z,20.60
2019-01-24T23:21:52.102Z,20.60
2019-01-24T23:25:02.006Z,20.60
2019-01-24T23:28:02.139Z,20.60
2019-01-24T23:30:55.735Z,20.60
2019-01-24T23:33:47.920Z,20.60
2019-01-24T23:36:41.766Z,20.60
2019-01-24T23:39:41.031Z,20.60
2019-01-24T23:43:05.118Z,20.60
2019-01-24T23:45:57.423Z,20.60
2019-01-24T23:49:04.203Z,20.60
2019-01-24T23:52:01.861Z,20.60
2019-01-24T23:54:54.607Z,20.50
2019-01-24T23:57:46.597Z,20.50
